Onyx, California
Current Conditions -  °F | °C
As of 7:15 PM on Saturday 20 Dec 2014 (Local Time) from KTSP Reporting Station
Overcast Overcast  
Wind Chill: 37°   Ceiling: 600
Heat Index: 45°   Visibility: 10mi
Dew Point: 45°   Wind: 16mph
Humidity: 100%   Direction: 300°WNW
Pressure: 30.21"   Gusts: 23mph
Location:  35.69°N, 118.22°W
Report Text: KTSP 210315Z AUTO 30014G20KT 10SM OVC006 07/07 A3021 RMK AO2
Loading
Personal Weather Stations






























Interactive Weather Map New forecast layout! Learn more

10-Day Weather Forecast

Advertisements
Track Severe Weather on mobile